sensor_id;sensor_type;location;lat;lon;timestamp;P1;durP1;ratioP1;P2;durP2;ratioP2
6376;SDS011;3221;48.858;10.128;2023-11-19T00:00:07;35.97;;;16.43;;
6376;SDS011;3221;48.858;10.128;2023-11-19T00:02:39;30.40;;;14.13;;
6376;SDS011;3221;48.858;10.128;2023-11-19T00:05:06;23.63;;;11.77;;
6376;SDS011;3221;48.858;10.128;2023-11-19T00:07:35;26.87;;;12.23;;
6376;SDS011;3221;48.858;10.128;2023-11-19T00:10:03;22.13;;;11.33;;
6376;SDS011;3221;48.858;10.128;2023-11-19T00:12:33;34.07;;;15.20;;
6376;SDS011;3221;48.858;10.128;2023-11-19T00:15:00;33.93;;;15.23;;
6376;SDS011;3221;48.858;10.128;2023-11-19T00:17:27;40.23;;;18.23;;
6376;SDS011;3221;48.858;10.128;2023-11-19T00:19:54;28.73;;;14.20;;
6376;SDS011;3221;48.858;10.128;2023-11-19T00:22:21;27.13;;;13.60;;
6376;SDS011;3221;48.858;10.128;2023-11-19T00:24:49;27.27;;;15.27;;
6376;SDS011;3221;48.858;10.128;2023-11-19T00:27:16;23.27;;;13.70;;
6376;SDS011;3221;48.858;10.128;2023-11-19T00:29:43;19.10;;;11.27;;
6376;SDS011;3221;48.858;10.128;2023-11-19T00:32:12;17.53;;;10.20;;
6376;SDS011;3221;48.858;10.128;2023-11-19T00:34:39;16.20;;;9.50;;
6376;SDS011;3221;48.858;10.128;2023-11-19T00:37:06;13.17;;;8.50;;
6376;SDS011;3221;48.858;10.128;2023-11-19T00:39:33;9.07;;;6.83;;
6376;SDS011;3221;48.858;10.128;2023-11-19T00:42:00;10.83;;;7.23;;
6376;SDS011;3221;48.858;10.128;2023-11-19T00:44:27;8.80;;;6.13;;
6376;SDS011;3221;48.858;10.128;2023-11-19T00:46:54;8.30;;;5.77;;
6376;SDS011;3221;48.858;10.128;2023-11-19T00:49:21;6.73;;;5.10;;
6376;SDS011;3221;48.858;10.128;2023-11-19T00:51:48;6.27;;;4.30;;
6376;SDS011;3221;48.858;10.128;2023-11-19T00:54:15;4.20;;;3.70;;
6376;SDS011;3221;48.858;10.128;2023-11-19T00:56:42;4.43;;;3.47;;
6376;SDS011;3221;48.858;10.128;2023-11-19T00:59:09;4.73;;;2.90;;
6376;SDS011;3221;48.858;10.128;2023-11-19T01:01:36;3.10;;;2.57;;
6376;SDS011;3221;48.858;10.128;2023-11-19T01:04:03;3.77;;;3.00;;
6376;SDS011;3221;48.858;10.128;2023-11-19T01:06:31;7.00;;;4.27;;
6376;SDS011;3221;48.858;10.128;2023-11-19T01:08:58;6.07;;;3.50;;
6376;SDS011;3221;48.858;10.128;2023-11-19T01:11:25;4.90;;;3.20;;
6376;SDS011;3221;48.858;10.128;2023-11-19T01:13:52;3.33;;;2.67;;
6376;SDS011;3221;48.858;10.128;2023-11-19T01:16:19;2.63;;;2.43;;
6376;SDS011;3221;48.858;10.128;2023-11-19T01:18:47;2.90;;;2.60;;
6376;SDS011;3221;48.858;10.128;2023-11-19T01:21:15;2.77;;;2.53;;
6376;SDS011;3221;48.858;10.128;2023-11-19T01:23:42;2.80;;;2.20;;
6376;SDS011;3221;48.858;10.128;2023-11-19T01:26:12;2.00;;;1.90;;
6376;SDS011;3221;48.858;10.128;2023-11-19T01:28:39;2.50;;;2.30;;
6376;SDS011;3221;48.858;10.128;2023-11-19T01:31:17;2.20;;;2.00;;
6376;SDS011;3221;48.858;10.128;2023-11-19T01:33:45;2.30;;;2.10;;
6376;SDS011;3221;48.858;10.128;2023-11-19T01:36:13;2.63;;;2.40;;
6376;SDS011;3221;48.858;10.128;2023-11-19T01:38:40;2.50;;;2.27;;
6376;SDS011;3221;48.858;10.128;2023-11-19T01:41:07;1.90;;;1.80;;
6376;SDS011;3221;48.858;10.128;2023-11-19T01:43:35;2.13;;;1.93;;
6376;SDS011;3221;48.858;10.128;2023-11-19T01:46:04;2.13;;;1.93;;
6376;SDS011;3221;48.858;10.128;2023-11-19T01:48:32;3.30;;;2.03;;
6376;SDS011;3221;48.858;10.128;2023-11-19T01:51:01;1.90;;;1.80;;
6376;SDS011;3221;48.858;10.128;2023-11-19T01:53:30;1.93;;;1.83;;
6376;SDS011;3221;48.858;10.128;2023-11-19T01:55:58;2.33;;;2.10;;
6376;SDS011;3221;48.858;10.128;2023-11-19T01:58:26;2.27;;;2.10;;
6376;SDS011;3221;48.858;10.128;2023-11-19T02:00:53;2.30;;;2.10;;
6376;SDS011;3221;48.858;10.128;2023-11-19T02:03:21;1.90;;;1.80;;
6376;SDS011;3221;48.858;10.128;2023-11-19T02:05:48;2.40;;;2.20;;
6376;SDS011;3221;48.858;10.128;2023-11-19T02:08:17;2.10;;;1.90;;
6376;SDS011;3221;48.858;10.128;2023-11-19T02:10:44;1.97;;;1.87;;
6376;SDS011;3221;48.858;10.128;2023-11-19T02:13:11;2.20;;;2.10;;
6376;SDS011;3221;48.858;10.128;2023-11-19T02:15:40;1.97;;;1.80;;
6376;SDS011;3221;48.858;10.128;2023-11-19T02:18:21;2.20;;;2.10;;
6376;SDS011;3221;48.858;10.128;2023-11-19T02:20:50;3.27;;;2.00;;
6376;SDS011;3221;48.858;10.128;2023-11-19T02:23:17;2.30;;;2.10;;
6376;SDS011;3221;48.858;10.128;2023-11-19T02:28:41;2.20;;;2.00;;
6376;SDS011;3221;48.858;10.128;2023-11-19T02:31:09;2.77;;;2.30;;
6376;SDS011;3221;48.858;10.128;2023-11-19T02:33:38;2.80;;;2.07;;
6376;SDS011;3221;48.858;10.128;2023-11-19T02:36:06;2.20;;;2.00;;
6376;SDS011;3221;48.858;10.128;2023-11-19T02:38:34;3.57;;;2.23;;
6376;SDS011;3221;48.858;10.128;2023-11-19T02:41:06;2.10;;;2.00;;
6376;SDS011;3221;48.858;10.128;2023-11-19T02:43:34;2.00;;;1.80;;
6376;SDS011;3221;48.858;10.128;2023-11-19T02:46:04;1.77;;;1.67;;
6376;SDS011;3221;48.858;10.128;2023-11-19T02:48:37;2.37;;;2.17;;
6376;SDS011;3221;48.858;10.128;2023-11-19T02:51:05;1.80;;;1.70;;
6376;SDS011;3221;48.858;10.128;2023-11-19T02:53:36;2.07;;;1.87;;
6376;SDS011;3221;48.858;10.128;2023-11-19T02:56:03;1.80;;;1.60;;
6376;SDS011;3221;48.858;10.128;2023-11-19T02:58:52;1.60;;;1.50;;
6376;SDS011;3221;48.858;10.128;2023-11-19T03:01:22;2.17;;;2.00;;
6376;SDS011;3221;48.858;10.128;2023-11-19T03:03:57;1.97;;;1.87;;
6376;SDS011;3221;48.858;10.128;2023-11-19T03:06:25;1.90;;;1.80;;
6376;SDS011;3221;48.858;10.128;2023-11-19T03:08:52;1.90;;;1.80;;
6376;SDS011;3221;48.858;10.128;2023-11-19T03:11:19;2.80;;;1.80;;
6376;SDS011;3221;48.858;10.128;2023-11-19T03:13:46;1.90;;;1.80;;
6376;SDS011;3221;48.858;10.128;2023-11-19T03:16:13;1.80;;;1.70;;
6376;SDS011;3221;48.858;10.128;2023-11-19T03:18:40;1.80;;;1.70;;
6376;SDS011;3221;48.858;10.128;2023-11-19T03:21:07;2.03;;;1.83;;
6376;SDS011;3221;48.858;10.128;2023-11-19T03:23:35;1.90;;;1.80;;
6376;SDS011;3221;48.858;10.128;2023-11-19T03:26:03;1.87;;;1.70;;
6376;SDS011;3221;48.858;10.128;2023-11-19T03:28:32;1.93;;;1.83;;
6376;SDS011;3221;48.858;10.128;2023-11-19T03:30:59;1.70;;;1.60;;
6376;SDS011;3221;48.858;10.128;2023-11-19T03:33:26;2.10;;;2.00;;
6376;SDS011;3221;48.858;10.128;2023-11-19T03:35:54;1.90;;;1.80;;
6376;SDS011;3221;48.858;10.128;2023-11-19T03:38:23;1.80;;;1.70;;
6376;SDS011;3221;48.858;10.128;2023-11-19T03:40:53;1.80;;;1.70;;
6376;SDS011;3221;48.858;10.128;2023-11-19T03:43:20;1.80;;;1.70;;
6376;SDS011;3221;48.858;10.128;2023-11-19T03:45:47;2.10;;;2.00;;
6376;SDS011;3221;48.858;10.128;2023-11-19T03:48:14;2.00;;;1.90;;
6376;SDS011;3221;48.858;10.128;2023-11-19T03:50:45;1.70;;;1.60;;
6376;SDS011;3221;48.858;10.128;2023-11-19T03:53:12;1.90;;;1.80;;
6376;SDS011;3221;48.858;10.128;2023-11-19T03:55:40;1.80;;;1.70;;
6376;SDS011;3221;48.858;10.128;2023-11-19T03:58:07;1.67;;;1.57;;
6376;SDS011;3221;48.858;10.128;2023-11-19T04:00:34;1.70;;;1.60;;
6376;SDS011;3221;48.858;10.128;2023-11-19T04:03:01;2.07;;;1.83;;
6376;SDS011;3221;48.858;10.128;2023-11-19T04:05:29;1.50;;;1.40;;
6376;SDS011;3221;48.858;10.128;2023-11-19T04:07:56;1.73;;;1.63;;
6376;SDS011;3221;48.858;10.128;2023-11-19T04:10:23;1.70;;;1.60;;
6376;SDS011;3221;48.858;10.128;2023-11-19T04:12:51;1.50;;;1.40;;
6376;SDS011;3221;48.858;10.128;2023-11-19T04:15:18;1.57;;;1.47;;
6376;SDS011;3221;48.858;10.128;2023-11-19T04:17:45;1.70;;;1.60;;
6376;SDS011;3221;48.858;10.128;2023-11-19T04:20:12;1.53;;;1.43;;
6376;SDS011;3221;48.858;10.128;2023-11-19T04:22:40;1.70;;;1.60;;
6376;SDS011;3221;48.858;10.128;2023-11-19T04:25:07;1.80;;;1.70;;
6376;SDS011;3221;48.858;10.128;2023-11-19T04:27:35;1.60;;;1.50;;
6376;SDS011;3221;48.858;10.128;2023-11-19T04:30:02;1.47;;;1.37;;
6376;SDS011;3221;48.858;10.128;2023-11-19T04:32:30;1.60;;;1.50;;
6376;SDS011;3221;48.858;10.128;2023-11-19T04:34:57;1.83;;;1.60;;
6376;SDS011;3221;48.858;10.128;2023-11-19T04:37:23;1.50;;;1.40;;
6376;SDS011;3221;48.858;10.128;2023-11-19T04:39:51;1.50;;;1.40;;
6376;SDS011;3221;48.858;10.128;2023-11-19T04:42:18;2.03;;;1.33;;
6376;SDS011;3221;48.858;10.128;2023-11-19T04:44:46;1.93;;;1.30;;
6376;SDS011;3221;48.858;10.128;2023-11-19T04:47:12;1.17;;;1.17;;
6376;SDS011;3221;48.858;10.128;2023-11-19T04:49:40;1.20;;;1.10;;
6376;SDS011;3221;48.858;10.128;2023-11-19T04:52:10;0.80;;;0.80;;
6376;SDS011;3221;48.858;10.128;2023-11-19T04:54:41;1.13;;;1.13;;
6376;SDS011;3221;48.858;10.128;2023-11-19T04:57:09;1.73;;;1.00;;
6376;SDS011;3221;48.858;10.128;2023-11-19T04:59:39;1.23;;;1.23;;
6376;SDS011;3221;48.858;10.128;2023-11-19T05:02:08;1.23;;;1.23;;
6376;SDS011;3221;48.858;10.128;2023-11-19T05:04:35;1.20;;;1.10;;
6376;SDS011;3221;48.858;10.128;2023-11-19T05:07:04;2.20;;;1.30;;
6376;SDS011;3221;48.858;10.128;2023-11-19T05:09:31;1.20;;;1.10;;
6376;SDS011;3221;48.858;10.128;2023-11-19T05:11:58;1.10;;;1.10;;
6376;SDS011;3221;48.858;10.128;2023-11-19T05:14:25;1.20;;;1.10;;
6376;SDS011;3221;48.858;10.128;2023-11-19T05:16:51;1.10;;;1.10;;
6376;SDS011;3221;48.858;10.128;2023-11-19T05:19:18;1.10;;;1.10;;
6376;SDS011;3221;48.858;10.128;2023-11-19T05:21:45;1.40;;;1.30;;
6376;SDS011;3221;48.858;10.128;2023-11-19T05:24:12;1.27;;;1.20;;
6376;SDS011;3221;48.858;10.128;2023-11-19T05:26:40;1.10;;;1.10;;
6376;SDS011;3221;48.858;10.128;2023-11-19T05:29:06;1.60;;;1.10;;
6376;SDS011;3221;48.858;10.128;2023-11-19T05:31:33;1.43;;;1.33;;
6376;SDS011;3221;48.858;10.128;2023-11-19T05:34:03;1.23;;;1.20;;
6376;SDS011;3221;48.858;10.128;2023-11-19T05:36:30;1.40;;;1.30;;
6376;SDS011;3221;48.858;10.128;2023-11-19T05:38:57;1.50;;;1.40;;
6376;SDS011;3221;48.858;10.128;2023-11-19T05:41:23;1.40;;;1.30;;
6376;SDS011;3221;48.858;10.128;2023-11-19T05:43:50;1.40;;;1.30;;
6376;SDS011;3221;48.858;10.128;2023-11-19T05:46:18;1.30;;;1.20;;
6376;SDS011;3221;48.858;10.128;2023-11-19T05:48:46;1.20;;;1.20;;
6376;SDS011;3221;48.858;10.128;2023-11-19T05:51:14;1.20;;;1.20;;
6376;SDS011;3221;48.858;10.128;2023-11-19T05:53:44;1.57;;;1.47;;
6376;SDS011;3221;48.858;10.128;2023-11-19T05:56:14;1.40;;;1.30;;
6376;SDS011;3221;48.858;10.128;2023-11-19T05:58:42;1.57;;;1.47;;
6376;SDS011;3221;48.858;10.128;2023-11-19T06:01:11;1.20;;;1.20;;
6376;SDS011;3221;48.858;10.128;2023-11-19T06:03:38;1.67;;;1.30;;
6376;SDS011;3221;48.858;10.128;2023-11-19T06:06:05;1.53;;;1.27;;
6376;SDS011;3221;48.858;10.128;2023-11-19T06:08:33;1.20;;;1.20;;
6376;SDS011;3221;48.858;10.128;2023-11-19T06:11:00;1.20;;;1.20;;
6376;SDS011;3221;48.858;10.128;2023-11-19T06:13:28;1.13;;;1.13;;
6376;SDS011;3221;48.858;10.128;2023-11-19T06:15:57;1.20;;;1.10;;
6376;SDS011;3221;48.858;10.128;2023-11-19T06:18:25;1.37;;;1.20;;
6376;SDS011;3221;48.858;10.128;2023-11-19T06:20:52;1.20;;;1.10;;
6376;SDS011;3221;48.858;10.128;2023-11-19T06:23:18;1.10;;;1.10;;
6376;SDS011;3221;48.858;10.128;2023-11-19T06:25:45;1.47;;;1.30;;
6376;SDS011;3221;48.858;10.128;2023-11-19T06:28:12;1.17;;;1.17;;
6376;SDS011;3221;48.858;10.128;2023-11-19T06:30:40;1.20;;;1.10;;
6376;SDS011;3221;48.858;10.128;2023-11-19T06:33:08;1.30;;;1.20;;
6376;SDS011;3221;48.858;10.128;2023-11-19T06:35:35;1.53;;;1.43;;
6376;SDS011;3221;48.858;10.128;2023-11-19T06:38:04;1.43;;;1.30;;
6376;SDS011;3221;48.858;10.128;2023-11-19T06:40:35;1.33;;;1.23;;
6376;SDS011;3221;48.858;10.128;2023-11-19T06:43:02;1.53;;;1.23;;
6376;SDS011;3221;48.858;10.128;2023-11-19T06:45:30;1.83;;;1.10;;
6376;SDS011;3221;48.858;10.128;2023-11-19T06:47:57;1.50;;;1.27;;
6376;SDS011;3221;48.858;10.128;2023-11-19T06:50:25;1.43;;;1.33;;
6376;SDS011;3221;48.858;10.128;2023-11-19T06:52:52;0.90;;;0.90;;
6376;SDS011;3221;48.858;10.128;2023-11-19T06:55:18;2.10;;;1.10;;
6376;SDS011;3221;48.858;10.128;2023-11-19T06:57:45;1.60;;;1.00;;
6376;SDS011;3221;48.858;10.128;2023-11-19T07:00:12;1.20;;;1.10;;
6376;SDS011;3221;48.858;10.128;2023-11-19T07:02:39;1.37;;;1.27;;
6376;SDS011;3221;48.858;10.128;2023-11-19T07:05:06;1.30;;;1.20;;
6376;SDS011;3221;48.858;10.128;2023-11-19T07:07:34;1.40;;;1.30;;
6376;SDS011;3221;48.858;10.128;2023-11-19T07:10:02;2.33;;;1.27;;
6376;SDS011;3221;48.858;10.128;2023-11-19T07:12:30;1.90;;;1.20;;
6376;SDS011;3221;48.858;10.128;2023-11-19T07:14:57;1.30;;;1.20;;
6376;SDS011;3221;48.858;10.128;2023-11-19T07:17:24;1.20;;;1.10;;
6376;SDS011;3221;48.858;10.128;2023-11-19T07:19:51;1.00;;;1.00;;
6376;SDS011;3221;48.858;10.128;2023-11-19T07:22:18;0.90;;;0.90;;
6376;SDS011;3221;48.858;10.128;2023-11-19T07:24:45;1.50;;;1.40;;
6376;SDS011;3221;48.858;10.128;2023-11-19T07:27:12;1.63;;;1.53;;
6376;SDS011;3221;48.858;10.128;2023-11-19T07:29:40;1.70;;;1.60;;
6376;SDS011;3221;48.858;10.128;2023-11-19T07:32:07;1.83;;;1.47;;
6376;SDS011;3221;48.858;10.128;2023-11-19T07:34:34;1.83;;;1.73;;
6376;SDS011;3221;48.858;10.128;2023-11-19T07:37:02;1.60;;;1.50;;
6376;SDS011;3221;48.858;10.128;2023-11-19T07:39:29;1.27;;;1.17;;
6376;SDS011;3221;48.858;10.128;2023-11-19T07:41:56;1.40;;;1.30;;
6376;SDS011;3221;48.858;10.128;2023-11-19T07:44:23;1.23;;;1.13;;
6376;SDS011;3221;48.858;10.128;2023-11-19T07:46:51;1.20;;;1.10;;
6376;SDS011;3221;48.858;10.128;2023-11-19T07:49:18;1.50;;;1.00;;
6376;SDS011;3221;48.858;10.128;2023-11-19T07:51:45;1.20;;;1.10;;
6376;SDS011;3221;48.858;10.128;2023-11-19T07:54:11;1.20;;;1.10;;
6376;SDS011;3221;48.858;10.128;2023-11-19T07:56:40;1.00;;;1.00;;
6376;SDS011;3221;48.858;10.128;2023-11-19T07:59:07;0.83;;;0.83;;
6376;SDS011;3221;48.858;10.128;2023-11-19T08:01:34;1.00;;;1.00;;
6376;SDS011;3221;48.858;10.128;2023-11-19T08:04:01;1.67;;;0.80;;
6376;SDS011;3221;48.858;10.128;2023-11-19T08:06:28;1.00;;;0.90;;
6376;SDS011;3221;48.858;10.128;2023-11-19T08:08:55;1.10;;;1.00;;
6376;SDS011;3221;48.858;10.128;2023-11-19T08:11:22;1.37;;;1.27;;
6376;SDS011;3221;48.858;10.128;2023-11-19T08:13:49;1.20;;;1.10;;
6376;SDS011;3221;48.858;10.128;2023-11-19T08:16:16;0.80;;;0.80;;
6376;SDS011;3221;48.858;10.128;2023-11-19T08:18:43;0.70;;;0.70;;
6376;SDS011;3221;48.858;10.128;2023-11-19T08:21:10;0.90;;;0.90;;
6376;SDS011;3221;48.858;10.128;2023-11-19T08:23:37;0.80;;;0.80;;
6376;SDS011;3221;48.858;10.128;2023-11-19T08:26:05;1.17;;;0.90;;
6376;SDS011;3221;48.858;10.128;2023-11-19T08:28:32;1.00;;;1.00;;
6376;SDS011;3221;48.858;10.128;2023-11-19T08:31:01;2.27;;;1.03;;
6376;SDS011;3221;48.858;10.128;2023-11-19T08:33:31;1.00;;;0.90;;
6376;SDS011;3221;48.858;10.128;2023-11-19T08:35:58;1.10;;;1.00;;
6376;SDS011;3221;48.858;10.128;2023-11-19T08:38:25;1.00;;;1.00;;
6376;SDS011;3221;48.858;10.128;2023-11-19T08:40:55;1.40;;;1.30;;
6376;SDS011;3221;48.858;10.128;2023-11-19T08:43:26;1.30;;;1.20;;
6376;SDS011;3221;48.858;10.128;2023-11-19T08:45:54;2.80;;;1.50;;
6376;SDS011;3221;48.858;10.128;2023-11-19T08:48:21;1.90;;;1.20;;
6376;SDS011;3221;48.858;10.128;2023-11-19T08:50:48;1.20;;;1.10;;
6376;SDS011;3221;48.858;10.128;2023-11-19T08:53:15;1.10;;;1.10;;
6376;SDS011;3221;48.858;10.128;2023-11-19T08:55:41;1.87;;;1.17;;
6376;SDS011;3221;48.858;10.128;2023-11-19T08:58:08;1.13;;;1.00;;
6376;SDS011;3221;48.858;10.128;2023-11-19T09:00:35;0.90;;;0.90;;
6376;SDS011;3221;48.858;10.128;2023-11-19T09:03:02;0.83;;;0.83;;
6376;SDS011;3221;48.858;10.128;2023-11-19T09:05:30;0.83;;;0.83;;
6376;SDS011;3221;48.858;10.128;2023-11-19T09:07:57;0.67;;;0.63;;
6376;SDS011;3221;48.858;10.128;2023-11-19T09:10:24;0.80;;;0.80;;
6376;SDS011;3221;48.858;10.128;2023-11-19T09:12:53;0.87;;;0.87;;
6376;SDS011;3221;48.858;10.128;2023-11-19T09:15:24;0.70;;;0.70;;
6376;SDS011;3221;48.858;10.128;2023-11-19T09:17:51;0.70;;;0.70;;
6376;SDS011;3221;48.858;10.128;2023-11-19T09:20:18;0.73;;;0.73;;
6376;SDS011;3221;48.858;10.128;2023-11-19T09:22:45;0.70;;;0.70;;
6376;SDS011;3221;48.858;10.128;2023-11-19T09:25:12;0.80;;;0.80;;
6376;SDS011;3221;48.858;10.128;2023-11-19T09:27:43;0.97;;;0.87;;
6376;SDS011;3221;48.858;10.128;2023-11-19T09:30:11;1.40;;;0.83;;
6376;SDS011;3221;48.858;10.128;2023-11-19T09:32:39;0.80;;;0.80;;
6376;SDS011;3221;48.858;10.128;2023-11-19T09:35:07;1.77;;;0.97;;
6376;SDS011;3221;48.858;10.128;2023-11-19T09:37:34;1.13;;;0.97;;
6376;SDS011;3221;48.858;10.128;2023-11-19T09:40:01;1.07;;;1.00;;
6376;SDS011;3221;48.858;10.128;2023-11-19T09:42:28;1.20;;;1.10;;
6376;SDS011;3221;48.858;10.128;2023-11-19T09:44:59;1.07;;;0.90;;
6376;SDS011;3221;48.858;10.128;2023-11-19T09:47:29;0.90;;;0.90;;
6376;SDS011;3221;48.858;10.128;2023-11-19T09:49:56;1.20;;;1.10;;
6376;SDS011;3221;48.858;10.128;2023-11-19T09:52:24;2.57;;;1.17;;
6376;SDS011;3221;48.858;10.128;2023-11-19T09:54:52;0.90;;;0.90;;
6376;SDS011;3221;48.858;10.128;2023-11-19T09:57:18;1.10;;;1.00;;
6376;SDS011;3221;48.858;10.128;2023-11-19T09:59:46;1.13;;;1.00;;
6376;SDS011;3221;48.858;10.128;2023-11-19T10:02:16;0.70;;;0.70;;
6376;SDS011;3221;48.858;10.128;2023-11-19T10:04:44;3.50;;;1.30;;
6376;SDS011;3221;48.858;10.128;2023-11-19T10:07:13;1.10;;;1.10;;
6376;SDS011;3221;48.858;10.128;2023-11-19T10:09:40;0.83;;;0.80;;
6376;SDS011;3221;48.858;10.128;2023-11-19T10:12:07;1.80;;;1.10;;
6376;SDS011;3221;48.858;10.128;2023-11-19T10:14:34;1.57;;;1.00;;
6376;SDS011;3221;48.858;10.128;2023-11-19T10:17:07;0.90;;;0.90;;
6376;SDS011;3221;48.858;10.128;2023-11-19T10:19:34;0.90;;;0.90;;
6376;SDS011;3221;48.858;10.128;2023-11-19T10:22:05;1.17;;;1.07;;
6376;SDS011;3221;48.858;10.128;2023-11-19T10:24:33;0.90;;;0.90;;
6376;SDS011;3221;48.858;10.128;2023-11-19T10:27:06;2.47;;;1.13;;
6376;SDS011;3221;48.858;10.128;2023-11-19T10:29:39;1.30;;;1.20;;
6376;SDS011;3221;48.858;10.128;2023-11-19T10:32:06;1.77;;;1.20;;
6376;SDS011;3221;48.858;10.128;2023-11-19T10:34:52;1.00;;;0.97;;
6376;SDS011;3221;48.858;10.128;2023-11-19T10:37:31;1.67;;;0.97;;
6376;SDS011;3221;48.858;10.128;2023-11-19T10:39:59;2.87;;;1.67;;
6376;SDS011;3221;48.858;10.128;2023-11-19T10:42:26;2.87;;;1.90;;
6376;SDS011;3221;48.858;10.128;2023-11-19T10:44:53;2.37;;;1.80;;
6376;SDS011;3221;48.858;10.128;2023-11-19T10:47:20;2.37;;;1.57;;
6376;SDS011;3221;48.858;10.128;2023-11-19T10:49:52;1.60;;;1.50;;
6376;SDS011;3221;48.858;10.128;2023-11-19T10:52:19;1.70;;;1.60;;
6376;SDS011;3221;48.858;10.128;2023-11-19T10:54:50;1.83;;;1.73;;
6376;SDS011;3221;48.858;10.128;2023-11-19T10:57:21;4.50;;;1.70;;
6376;SDS011;3221;48.858;10.128;2023-11-19T10:59:48;3.50;;;3.20;;
6376;SDS011;3221;48.858;10.128;2023-11-19T11:02:18;2.43;;;2.20;;
6376;SDS011;3221;48.858;10.128;2023-11-19T11:04:50;6.40;;;5.60;;
6376;SDS011;3221;48.858;10.128;2023-11-19T11:07:19;9.67;;;8.67;;
6376;SDS011;3221;48.858;10.128;2023-11-19T11:10:02;7.63;;;6.47;;
6376;SDS011;3221;48.858;10.128;2023-11-19T11:12:33;7.00;;;5.17;;
6376;SDS011;3221;48.858;10.128;2023-11-19T11:15:04;4.30;;;3.90;;
6376;SDS011;3221;48.858;10.128;2023-11-19T11:17:33;3.00;;;2.60;;
6376;SDS011;3221;48.858;10.128;2023-11-19T11:20:00;2.53;;;2.20;;
6376;SDS011;3221;48.858;10.128;2023-11-19T11:22:29;2.40;;;2.20;;
6376;SDS011;3221;48.858;10.128;2023-11-19T11:25:18;2.30;;;1.70;;
6376;SDS011;3221;48.858;10.128;2023-11-19T11:34:02;1.47;;;1.33;;
6376;SDS011;3221;48.858;10.128;2023-11-19T11:39:34;1.60;;;1.33;;
6376;SDS011;3221;48.858;10.128;2023-11-19T11:50:10;1.20;;;1.10;;
6376;SDS011;3221;48.858;10.128;2023-11-19T11:53:26;1.20;;;1.10;;
6376;SDS011;3221;48.858;10.128;2023-11-19T11:58:17;1.40;;;1.30;;
6376;SDS011;3221;48.858;10.128;2023-11-19T12:00:44;1.30;;;1.00;;
6376;SDS011;3221;48.858;10.128;2023-11-19T12:03:14;1.40;;;1.30;;
6376;SDS011;3221;48.858;10.128;2023-11-19T12:05:41;1.20;;;1.10;;
6376;SDS011;3221;48.858;10.128;2023-11-19T12:08:13;1.70;;;1.20;;
6376;SDS011;3221;48.858;10.128;2023-11-19T12:10:49;2.90;;;1.10;;
6376;SDS011;3221;48.858;10.128;2023-11-19T12:13:19;2.03;;;1.20;;
6376;SDS011;3221;48.858;10.128;2023-11-19T12:18:23;1.53;;;1.37;;
6376;SDS011;3221;48.858;10.128;2023-11-19T12:20:56;4.57;;;2.00;;
6376;SDS011;3221;48.858;10.128;2023-11-19T12:23:23;2.50;;;2.20;;
6376;SDS011;3221;48.858;10.128;2023-11-19T12:25:50;3.97;;;2.70;;
6376;SDS011;3221;48.858;10.128;2023-11-19T12:28:17;2.47;;;2.20;;
6376;SDS011;3221;48.858;10.128;2023-11-19T12:30:45;3.30;;;2.20;;
6376;SDS011;3221;48.858;10.128;2023-11-19T12:33:13;2.67;;;1.80;;
6376;SDS011;3221;48.858;10.128;2023-11-19T12:35:44;2.23;;;2.03;;
6376;SDS011;3221;48.858;10.128;2023-11-19T12:38:20;2.17;;;1.83;;
6376;SDS011;3221;48.858;10.128;2023-11-19T12:41:06;3.67;;;3.23;;
6376;SDS011;3221;48.858;10.128;2023-11-19T12:43:34;3.33;;;2.90;;
6376;SDS011;3221;48.858;10.128;2023-11-19T12:46:20;3.90;;;3.20;;
6376;SDS011;3221;48.858;10.128;2023-11-19T12:48:48;2.90;;;2.60;;
6376;SDS011;3221;48.858;10.128;2023-11-19T12:51:16;2.70;;;2.20;;
6376;SDS011;3221;48.858;10.128;2023-11-19T12:53:47;3.27;;;2.30;;
6376;SDS011;3221;48.858;10.128;2023-11-19T12:56:16;3.60;;;2.53;;
6376;SDS011;3221;48.858;10.128;2023-11-19T12:58:43;4.43;;;2.80;;
6376;SDS011;3221;48.858;10.128;2023-11-19T13:01:10;4.27;;;3.20;;
6376;SDS011;3221;48.858;10.128;2023-11-19T13:03:43;5.33;;;3.37;;
6376;SDS011;3221;48.858;10.128;2023-11-19T13:06:12;4.70;;;3.43;;
6376;SDS011;3221;48.858;10.128;2023-11-19T13:11:31;3.63;;;2.90;;
6376;SDS011;3221;48.858;10.128;2023-11-19T13:14:03;3.77;;;2.57;;
6376;SDS011;3221;48.858;10.128;2023-11-19T13:16:31;2.20;;;2.00;;
6376;SDS011;3221;48.858;10.128;2023-11-19T13:18:59;3.00;;;1.90;;
6376;SDS011;3221;48.858;10.128;2023-11-19T13:21:29;2.63;;;1.87;;
6376;SDS011;3221;48.858;10.128;2023-11-19T13:23:56;3.30;;;1.43;;
6376;SDS011;3221;48.858;10.128;2023-11-19T13:26:23;3.47;;;1.70;;
6376;SDS011;3221;48.858;10.128;2023-11-19T13:28:50;2.20;;;1.80;;
6376;SDS011;3221;48.858;10.128;2023-11-19T13:31:17;3.47;;;1.60;;
6376;SDS011;3221;48.858;10.128;2023-11-19T13:33:45;2.00;;;1.33;;
6376;SDS011;3221;48.858;10.128;2023-11-19T13:36:17;2.67;;;1.43;;
6376;SDS011;3221;48.858;10.128;2023-11-19T13:38:48;1.73;;;1.30;;
6376;SDS011;3221;48.858;10.128;2023-11-19T13:41:17;1.47;;;1.37;;
6376;SDS011;3221;48.858;10.128;2023-11-19T13:43:44;1.67;;;1.20;;
6376;SDS011;3221;48.858;10.128;2023-11-19T13:46:11;2.17;;;1.30;;
6376;SDS011;3221;48.858;10.128;2023-11-19T13:48:39;1.73;;;1.43;;
6376;SDS011;3221;48.858;10.128;2023-11-19T13:51:06;1.60;;;1.43;;
6376;SDS011;3221;48.858;10.128;2023-11-19T13:53:33;1.60;;;1.43;;
6376;SDS011;3221;48.858;10.128;2023-11-19T13:56:03;1.87;;;1.57;;
6376;SDS011;3221;48.858;10.128;2023-11-19T13:58:30;3.67;;;2.00;;
6376;SDS011;3221;48.858;10.128;2023-11-19T14:00:56;2.13;;;1.57;;
6376;SDS011;3221;48.858;10.128;2023-11-19T14:03:24;2.60;;;1.67;;
6376;SDS011;3221;48.858;10.128;2023-11-19T14:05:51;2.50;;;1.87;;
6376;SDS011;3221;48.858;10.128;2023-11-19T14:08:21;1.93;;;1.57;;
6376;SDS011;3221;48.858;10.128;2023-11-19T14:10:51;2.10;;;1.90;;
6376;SDS011;3221;48.858;10.128;2023-11-19T14:13:21;2.63;;;2.00;;
6376;SDS011;3221;48.858;10.128;2023-11-19T14:15:49;1.90;;;1.67;;
6376;SDS011;3221;48.858;10.128;2023-11-19T14:18:16;2.47;;;1.73;;
6376;SDS011;3221;48.858;10.128;2023-11-19T14:20:44;2.50;;;1.50;;
6376;SDS011;3221;48.858;10.128;2023-11-19T14:23:11;2.03;;;1.67;;
6376;SDS011;3221;48.858;10.128;2023-11-19T14:25:37;2.53;;;1.87;;
6376;SDS011;3221;48.858;10.128;2023-11-19T14:28:05;3.77;;;1.93;;
6376;SDS011;3221;48.858;10.128;2023-11-19T14:30:32;2.50;;;1.73;;
6376;SDS011;3221;48.858;10.128;2023-11-19T14:33:01;1.83;;;1.60;;
6376;SDS011;3221;48.858;10.128;2023-11-19T14:35:29;2.50;;;1.67;;
6376;SDS011;3221;48.858;10.128;2023-11-19T14:37:56;2.00;;;1.67;;
6376;SDS011;3221;48.858;10.128;2023-11-19T14:40:23;1.80;;;1.47;;
6376;SDS011;3221;48.858;10.128;2023-11-19T14:43:08;2.13;;;1.50;;
6376;SDS011;3221;48.858;10.128;2023-11-19T14:45:38;2.17;;;1.37;;
6376;SDS011;3221;48.858;10.128;2023-11-19T14:48:15;3.93;;;1.30;;
6376;SDS011;3221;48.858;10.128;2023-11-19T14:50:44;2.37;;;1.67;;
6376;SDS011;3221;48.858;10.128;2023-11-19T14:53:11;1.73;;;1.57;;
6376;SDS011;3221;48.858;10.128;2023-11-19T14:55:38;2.87;;;1.80;;
6376;SDS011;3221;48.858;10.128;2023-11-19T14:58:06;3.30;;;1.80;;
6376;SDS011;3221;48.858;10.128;2023-11-19T15:00:37;2.30;;;1.70;;
6376;SDS011;3221;48.858;10.128;2023-11-19T15:03:04;4.10;;;1.90;;
6376;SDS011;3221;48.858;10.128;2023-11-19T15:05:33;3.50;;;1.80;;
6376;SDS011;3221;48.858;10.128;2023-11-19T15:08:01;2.13;;;1.67;;
6376;SDS011;3221;48.858;10.128;2023-11-19T15:10:30;3.67;;;1.40;;
6376;SDS011;3221;48.858;10.128;2023-11-19T15:12:56;2.03;;;1.50;;
6376;SDS011;3221;48.858;10.128;2023-11-19T15:15:24;1.80;;;1.50;;
6376;SDS011;3221;48.858;10.128;2023-11-19T15:17:54;3.50;;;1.40;;
6376;SDS011;3221;48.858;10.128;2023-11-19T15:20:21;2.13;;;1.47;;
6376;SDS011;3221;48.858;10.128;2023-11-19T15:22:47;2.53;;;1.20;;
6376;SDS011;3221;48.858;10.128;2023-11-19T15:25:14;1.40;;;1.30;;
6376;SDS011;3221;48.858;10.128;2023-11-19T15:27:41;4.37;;;1.97;;
6376;SDS011;3221;48.858;10.128;2023-11-19T15:30:08;3.80;;;2.60;;
6376;SDS011;3221;48.858;10.128;2023-11-19T15:32:36;4.60;;;2.90;;
6376;SDS011;3221;48.858;10.128;2023-11-19T15:35:04;5.70;;;3.97;;